createdAt,value
2018-11-20T00:01:50.408Z,20.63
2018-11-20T00:08:03.930Z,23.47
2018-11-20T00:14:17.256Z,21.77
2018-11-20T00:17:24.560Z,23.60
2018-11-20T00:20:31.867Z,21.43
2018-11-20T00:23:39.143Z,25.13
2018-11-20T00:26:46.447Z,23.63
2018-11-20T00:29:53.752Z,24.47
2018-11-20T00:33:01.031Z,27.40
2018-11-20T00:36:08.330Z,23.07
2018-11-20T00:39:07.468Z,24.77
2018-11-20T00:42:14.737Z,25.57
2018-11-20T00:45:22.044Z,25.80
2018-11-20T00:48:29.332Z,24.73
2018-11-20T00:51:36.629Z,25.17
2018-11-20T00:54:43.944Z,26.57
2018-11-20T00:57:51.210Z,25.47
2018-11-20T01:00:58.515Z,27.90
2018-11-20T01:04:05.796Z,25.33
2018-11-20T01:07:13.114Z,25.47
2018-11-20T01:10:20.440Z,27.67
2018-11-20T01:13:27.719Z,24.67
2018-11-20T01:16:35.034Z,22.77
2018-11-20T01:19:42.356Z,29.53
2018-11-20T01:22:49.657Z,23.70
2018-11-20T01:25:56.955Z,22.70
2018-11-20T01:28:55.187Z,28.07
2018-11-20T01:32:02.492Z,25.63
2018-11-20T01:35:09.800Z,25.17
2018-11-20T01:38:17.068Z,26.03
2018-11-20T01:41:24.512Z,26.83
2018-11-20T01:44:31.718Z,26.10
2018-11-20T01:47:39.013Z,25.47
2018-11-20T01:50:46.315Z,25.33
2018-11-20T01:53:53.595Z,24.87
2018-11-20T01:57:00.894Z,27.07
2018-11-20T02:00:08.194Z,24.93
2018-11-20T02:03:15.479Z,27.10
2018-11-20T02:06:22.775Z,23.87
2018-11-20T02:09:30.052Z,24.50
2018-11-20T02:12:37.356Z,23.03
2018-11-20T02:15:44.654Z,20.87
2018-11-20T02:18:51.926Z,19.87
2018-11-20T02:25:08.575Z,20.33
2018-11-20T02:28:15.876Z,20.57
2018-11-20T02:31:23.174Z,22.70
2018-11-20T02:34:30.650Z,18.07
2018-11-20T02:37:37.940Z,18.03
2018-11-20T02:43:50.395Z,20.80
2018-11-20T02:46:57.689Z,20.60
2018-11-20T02:50:04.970Z,20.30
2018-11-20T02:53:12.336Z,20.37
2018-11-20T02:56:19.651Z,19.57
2018-11-20T02:59:26.930Z,18.63
2018-11-20T03:02:34.225Z,17.97
2018-11-20T03:05:41.525Z,20.40
2018-11-20T03:08:48.802Z,22.17
2018-11-20T03:11:56.104Z,21.60
2018-11-20T03:15:03.386Z,22.83
2018-11-20T03:18:10.690Z,24.87
2018-11-20T03:21:06.836Z,24.70
2018-11-20T03:24:14.113Z,23.33
2018-11-20T03:27:21.409Z,23.30
2018-11-20T03:30:47.705Z,25.67
2018-11-20T03:33:55.025Z,26.83
2018-11-20T03:37:02.322Z,22.07
2018-11-20T03:40:09.603Z,22.53
2018-11-20T03:43:16.899Z,24.10
2018-11-20T03:46:24.205Z,22.20
2018-11-20T03:49:31.480Z,23.40
2018-11-20T03:52:38.778Z,23.27
2018-11-20T03:55:46.078Z,22.80
2018-11-20T03:58:53.377Z,22.53
2018-11-20T04:02:00.674Z,24.67
2018-11-20T04:05:07.966Z,25.47
2018-11-20T04:08:15.280Z,21.43
2018-11-20T04:11:22.580Z,25.33
2018-11-20T04:14:29.880Z,21.67
2018-11-20T04:17:37.202Z,27.50
2018-11-20T04:20:44.476Z,25.70
2018-11-20T04:23:51.778Z,21.87
2018-11-20T04:26:57.591Z,22.90
2018-11-20T04:30:04.891Z,23.37
2018-11-20T04:33:31.188Z,21.97
2018-11-20T04:36:38.498Z,21.03
2018-11-20T04:39:45.769Z,24.03
2018-11-20T04:42:49.685Z,21.80
2018-11-20T04:45:52.548Z,23.37
2018-11-20T04:48:50.952Z,22.03
2018-11-20T04:51:58.250Z,21.10
2018-11-20T04:55:05.529Z,19.27
2018-11-20T04:58:12.822Z,19.60
2018-11-20T05:01:20.108Z,21.40
2018-11-20T05:04:27.402Z,20.03
2018-11-20T05:07:34.708Z,20.90
2018-11-20T05:10:41.984Z,21.03
2018-11-20T05:13:49.278Z,23.50
2018-11-20T05:16:56.598Z,22.40
2018-11-20T05:20:03.873Z,21.47
2018-11-20T05:23:11.168Z,21.60
2018-11-20T05:26:18.450Z,21.87
2018-11-20T05:29:25.766Z,20.83
2018-11-20T05:32:33.063Z,21.53
2018-11-20T05:35:40.335Z,22.03
2018-11-20T05:38:47.645Z,20.60
2018-11-20T05:41:54.942Z,22.23
2018-11-20T05:45:02.235Z,22.27
2018-11-20T05:48:09.541Z,23.47
2018-11-20T05:51:16.833Z,20.97
2018-11-20T05:54:24.130Z,22.03
2018-11-20T05:57:31.431Z,24.63
2018-11-20T06:00:33.613Z,24.00
2018-11-20T06:03:40.933Z,26.23
2018-11-20T06:06:48.208Z,24.17
2018-11-20T06:09:55.516Z,24.67
2018-11-20T06:13:02.810Z,23.93
2018-11-20T06:16:10.083Z,24.97
2018-11-20T06:19:17.386Z,24.37
2018-11-20T06:22:16.883Z,22.90
2018-11-20T06:25:04.272Z,23.20
2018-11-20T06:28:04.287Z,23.03
2018-11-20T06:31:04.116Z,23.47
2018-11-20T06:33:55.987Z,25.53
2018-11-20T06:36:55.747Z,26.30
2018-11-20T06:46:00.511Z,25.97
2018-11-20T06:49:00.037Z,29.97
2018-11-20T06:51:53.319Z,27.97
2018-11-20T06:54:52.809Z,26.30
2018-11-20T06:57:52.568Z,26.23
2018-11-20T07:00:52.584Z,24.23
2018-11-20T07:03:52.146Z,26.07
2018-11-20T07:06:52.414Z,26.17
2018-11-20T07:09:52.316Z,25.70
2018-11-20T07:12:52.159Z,28.13
2018-11-20T07:15:52.271Z,25.47
2018-11-20T07:18:54.959Z,23.63
2018-11-20T07:22:01.060Z,23.00
2018-11-20T07:24:56.124Z,22.40
2018-11-20T07:27:55.849Z,23.30
2018-11-20T07:30:55.700Z,22.63
2018-11-20T07:33:55.597Z,23.20
2018-11-20T07:36:55.636Z,22.90
2018-11-20T07:39:55.315Z,22.03
2018-11-20T07:42:55.561Z,20.77
2018-11-20T07:45:50.107Z,23.27
2018-11-20T07:48:45.803Z,22.07
2018-11-20T07:51:48.007Z,20.37
2018-11-20T07:54:47.442Z,21.27
2018-11-20T07:57:50.273Z,22.20
2018-11-20T08:00:49.896Z,22.40
2018-11-20T08:03:38.210Z,21.63
2018-11-20T08:06:45.499Z,21.50
2018-11-20T08:09:40.424Z,23.33
2018-11-20T08:12:37.696Z,24.10
2018-11-20T08:15:33.628Z,22.83
2018-11-20T08:18:40.838Z,24.10
2018-11-20T08:21:48.134Z,25.03
2018-11-20T08:24:55.434Z,24.07
2018-11-20T08:28:02.728Z,25.03
2018-11-20T08:31:10.091Z,23.23
2018-11-20T08:34:17.363Z,25.60
2018-11-20T08:37:24.593Z,28.10
2018-11-20T08:40:31.890Z,28.23
2018-11-20T08:43:39.198Z,27.40
2018-11-20T08:46:46.476Z,28.67
2018-11-20T08:49:53.782Z,27.60
2018-11-20T08:53:01.163Z,24.93
2018-11-20T08:56:08.372Z,27.83
2018-11-20T08:59:15.670Z,25.27
2018-11-20T09:02:23.055Z,25.07
2018-11-20T09:05:20.577Z,25.57
2018-11-20T09:08:19.373Z,26.37
2018-11-20T09:11:26.648Z,22.47
2018-11-20T09:14:33.946Z,25.37
2018-11-20T09:17:41.243Z,23.93
2018-11-20T09:20:48.542Z,26.37
2018-11-20T09:24:25.540Z,25.03
2018-11-20T09:27:21.939Z,25.23
2018-11-20T09:30:22.273Z,25.23
2018-11-20T09:33:22.429Z,25.50
2018-11-20T09:39:09.164Z,25.10
2018-11-20T09:42:16.058Z,23.53
2018-11-20T09:45:42.341Z,22.77
2018-11-20T09:48:49.239Z,24.93
2018-11-20T09:51:56.117Z,24.13
2018-11-20T09:55:03.020Z,25.47
2018-11-20T09:58:09.889Z,25.33
2018-11-20T10:04:21.417Z,22.37
2018-11-20T10:07:28.285Z,26.00
2018-11-20T10:10:35.173Z,23.77
2018-11-20T10:13:35.058Z,23.07
2018-11-20T10:16:41.953Z,21.83
2018-11-20T10:19:48.868Z,24.17
2018-11-20T10:22:55.737Z,22.57
2018-11-20T10:26:02.787Z,25.50
2018-11-20T10:29:09.606Z,23.77
2018-11-20T10:32:14.949Z,22.47
2018-11-20T10:35:21.861Z,24.10
2018-11-20T10:38:28.732Z,22.00
2018-11-20T10:41:35.869Z,22.27
2018-11-20T10:44:42.757Z,22.60
2018-11-20T10:47:49.633Z,23.53
2018-11-20T10:50:56.541Z,23.73
2018-11-20T10:54:03.410Z,22.87
2018-11-20T10:57:10.307Z,25.30
2018-11-20T11:00:17.264Z,25.10
2018-11-20T11:03:24.117Z,22.53
2018-11-20T11:06:31.217Z,21.90
2018-11-20T11:09:21.643Z,21.53
2018-11-20T11:12:28.567Z,22.03
2018-11-20T11:15:35.419Z,20.30
2018-11-20T11:18:42.298Z,21.57
2018-11-20T11:21:49.191Z,22.50
2018-11-20T11:24:56.092Z,23.17
2018-11-20T11:28:02.968Z,20.93
2018-11-20T11:31:09.869Z,21.37
2018-11-20T11:34:16.763Z,19.87
2018-11-20T11:37:23.984Z,23.67
2018-11-20T11:40:30.905Z,20.37
2018-11-20T11:43:37.812Z,21.27
2018-11-20T11:46:44.704Z,20.70
2018-11-20T11:49:51.599Z,22.30
2018-11-20T11:52:58.476Z,21.73
2018-11-20T11:56:05.404Z,24.87
2018-11-20T11:59:12.296Z,22.70
2018-11-20T12:05:25.395Z,23.40
2018-11-20T12:08:32.270Z,23.83
2018-11-20T12:11:39.167Z,21.00
2018-11-20T12:14:46.062Z,22.93
2018-11-20T12:17:52.946Z,23.73
2018-11-20T12:20:49.177Z,24.37
2018-11-20T12:23:56.104Z,23.80
2018-11-20T12:27:04.426Z,23.40
2018-11-20T12:30:09.891Z,24.47
2018-11-20T12:33:16.784Z,26.93
2018-11-20T12:36:16.746Z,23.30
2018-11-20T12:39:25.917Z,23.27
2018-11-20T12:42:32.836Z,24.50
2018-11-20T12:45:45.745Z,23.60
2018-11-20T12:48:52.618Z,21.07
2018-11-20T12:51:49.040Z,24.10
2018-11-20T12:54:55.635Z,22.10
2018-11-20T12:57:43.099Z,21.93
2018-11-20T13:00:49.990Z,22.63
2018-11-20T13:03:56.897Z,22.50
2018-11-20T13:07:05.204Z,23.70
2018-11-20T13:10:10.661Z,24.63
2018-11-20T13:13:18.126Z,24.40
2018-11-20T13:16:24.454Z,26.33
2018-11-20T13:19:33.261Z,21.87
2018-11-20T13:22:39.653Z,23.13
2018-11-20T13:25:45.151Z,23.80
2018-11-20T13:28:52.023Z,23.97
2018-11-20T13:31:58.916Z,24.40
2018-11-20T13:35:05.789Z,27.80
2018-11-20T13:38:13.816Z,24.10
2018-11-20T13:41:39.949Z,22.77
2018-11-20T13:44:47.059Z,26.83
2018-11-20T13:47:54.006Z,26.23
2018-11-20T13:51:03.179Z,26.33
2018-11-20T13:54:11.814Z,28.10
2018-11-20T13:57:16.905Z,25.47
2018-11-20T14:00:23.891Z,28.17
2018-11-20T14:03:30.855Z,26.40
2018-11-20T14:06:37.760Z,26.10
2018-11-20T14:09:44.672Z,26.73
2018-11-20T14:12:51.609Z,26.10
2018-11-20T14:15:58.545Z,26.07
2018-11-20T14:19:05.471Z,25.77
2018-11-20T14:22:12.363Z,25.93
2018-11-20T14:25:19.384Z,27.63
2018-11-20T14:28:26.280Z,28.00
2018-11-20T14:31:33.180Z,27.70
2018-11-20T14:34:40.074Z,29.77
2018-11-20T14:37:46.991Z,27.17
2018-11-20T14:40:53.906Z,28.27
2018-11-20T14:44:00.789Z,28.27
2018-11-20T14:47:07.709Z,27.63
2018-11-20T14:50:14.580Z,30.13
2018-11-20T14:53:21.483Z,30.67
2018-11-20T14:56:28.376Z,28.60
2018-11-20T14:59:35.240Z,29.13
2018-11-20T15:02:42.134Z,30.10
2018-11-20T15:05:49.003Z,33.63
2018-11-20T15:08:55.899Z,33.57
2018-11-20T15:12:02.800Z,31.80
2018-11-20T15:15:09.675Z,30.17
2018-11-20T15:18:16.568Z,32.57
2018-11-20T15:21:23.466Z,34.43
2018-11-20T15:24:30.342Z,34.13
2018-11-20T15:27:37.241Z,30.27
2018-11-20T15:30:35.908Z,30.77
2018-11-20T15:33:42.907Z,33.10
2018-11-20T15:36:42.736Z,31.90
2018-11-20T15:39:48.507Z,33.73
2018-11-20T15:42:55.472Z,28.87
2018-11-20T15:49:34.845Z,31.50
2018-11-20T15:52:23.717Z,34.17
2018-11-20T15:55:30.788Z,29.53
2018-11-20T15:58:37.741Z,29.57
2018-11-20T16:01:44.893Z,31.37
2018-11-20T16:04:51.776Z,33.90
2018-11-20T16:07:57.143Z,32.30
2018-11-20T16:11:04.020Z,33.40
2018-11-20T16:14:10.936Z,32.77
2018-11-20T16:17:17.870Z,26.90
2018-11-20T16:20:25.538Z,30.70
2018-11-20T16:23:32.488Z,37.07
2018-11-20T16:26:39.342Z,31.80
2018-11-20T16:29:46.283Z,31.93
2018-11-20T16:32:53.227Z,32.43
2018-11-20T16:36:02.983Z,30.43
2018-11-20T16:39:07.033Z,30.37
2018-11-20T16:42:13.971Z,29.53
2018-11-20T16:45:20.890Z,35.37
2018-11-20T16:48:27.787Z,34.47
2018-11-20T16:51:34.659Z,29.67
2018-11-20T16:54:41.568Z,34.80
2018-11-20T16:57:47.217Z,26.13
2018-11-20T17:00:47.223Z,35.67
2018-11-20T17:03:53.376Z,35.93
2018-11-20T17:06:53.314Z,39.70
2018-11-20T17:09:59.558Z,37.57
2018-11-20T17:12:59.526Z,44.67
2018-11-20T17:15:59.143Z,35.97
2018-11-20T17:18:59.087Z,39.37
2018-11-20T17:21:58.858Z,35.93
2018-11-20T17:24:58.822Z,46.33
2018-11-20T17:28:01.997Z,59.50
2018-11-20T17:31:01.850Z,47.50
2018-11-20T17:34:04.284Z,42.03
2018-11-20T17:37:04.544Z,37.03
2018-11-20T17:40:05.092Z,44.77
2018-11-20T17:43:10.706Z,43.17
2018-11-20T17:45:57.980Z,41.40
2018-11-20T17:48:58.133Z,39.97
2018-11-20T17:52:04.444Z,38.50
2018-11-20T17:55:04.425Z,41.70
2018-11-20T17:58:10.439Z,41.70
2018-11-20T18:01:10.777Z,43.67
2018-11-20T18:04:06.067Z,44.07
2018-11-20T18:07:06.084Z,39.40
2018-11-20T18:09:54.851Z,45.20
2018-11-20T18:12:50.360Z,40.00
2018-11-20T18:15:50.465Z,44.67
2018-11-20T18:18:50.551Z,39.00
2018-11-20T18:21:50.503Z,37.57
2018-11-20T18:24:50.300Z,31.80
2018-11-20T18:27:50.311Z,39.00
2018-11-20T18:30:55.722Z,38.83
2018-11-20T18:33:55.985Z,37.67
2018-11-20T18:36:48.770Z,30.57
2018-11-20T18:39:48.654Z,35.70
2018-11-20T18:42:48.826Z,38.53
2018-11-20T18:45:48.599Z,34.30
2018-11-20T18:51:52.998Z,37.53
2018-11-20T18:54:52.980Z,37.43
2018-11-20T18:57:53.013Z,38.40
2018-11-20T19:00:53.100Z,36.63
2018-11-20T19:03:53.232Z,39.07
2018-11-20T19:06:53.204Z,44.07
2018-11-20T19:09:52.937Z,39.80
2018-11-20T19:12:52.857Z,36.57
2018-11-20T19:15:52.400Z,35.07
2018-11-20T19:18:58.251Z,32.67
2018-11-20T19:21:58.213Z,41.63
2018-11-20T19:24:57.781Z,40.27
2018-11-20T19:27:47.753Z,42.67
2018-11-20T19:30:47.628Z,43.90
2018-11-20T19:33:47.381Z,41.80
2018-11-20T19:36:47.110Z,41.37
2018-11-20T19:39:47.370Z,42.30
2018-11-20T19:42:38.060Z,40.27
2018-11-20T19:45:37.572Z,39.43
2018-11-20T19:48:37.280Z,43.13
2018-11-20T19:51:37.281Z,38.20
2018-11-20T19:54:37.064Z,42.63
2018-11-20T19:57:37.065Z,43.20
2018-11-20T20:00:37.011Z,44.33
2018-11-20T20:03:37.153Z,35.87
2018-11-20T20:06:36.851Z,41.60
2018-11-20T20:09:36.505Z,34.20
2018-11-20T20:12:36.322Z,36.17
2018-11-20T20:15:39.557Z,41.00
2018-11-20T20:18:46.010Z,37.80
2018-11-20T20:21:45.488Z,33.07
2018-11-20T20:24:45.137Z,34.27
2018-11-20T20:27:45.101Z,39.67
2018-11-20T20:30:45.117Z,34.87
2018-11-20T20:33:45.389Z,37.67
2018-11-20T20:36:45.066Z,40.03
2018-11-20T20:39:51.505Z,39.23
2018-11-20T20:42:51.281Z,39.67
2018-11-20T20:45:50.883Z,36.67
2018-11-20T20:48:51.051Z,35.03
2018-11-20T20:51:44.373Z,38.50
2018-11-20T20:54:43.910Z,36.10
2018-11-20T20:57:33.973Z,36.37
2018-11-20T21:00:34.209Z,38.97
2018-11-20T21:03:33.909Z,37.43
2018-11-20T21:06:33.751Z,35.77
2018-11-20T21:09:33.358Z,40.87
2018-11-20T21:12:33.031Z,34.13
2018-11-20T21:15:36.240Z,36.77
2018-11-20T21:18:36.441Z,36.57
2018-11-20T21:21:36.613Z,32.50
2018-11-20T21:24:23.704Z,39.70
2018-11-20T21:27:23.805Z,32.67
2018-11-20T21:30:24.001Z,36.73
2018-11-20T21:33:29.359Z,30.80
2018-11-20T21:36:16.895Z,31.63
2018-11-20T21:39:17.122Z,37.17
2018-11-20T21:42:07.039Z,30.93
2018-11-20T21:45:07.244Z,33.90
2018-11-20T21:48:07.605Z,33.50
2018-11-20T21:51:07.186Z,39.33
2018-11-20T21:54:07.475Z,37.10
2018-11-20T21:57:07.148Z,36.47
2018-11-20T22:00:10.237Z,28.33
2018-11-20T22:03:10.535Z,30.20
2018-11-20T22:06:10.408Z,33.13
2018-11-20T22:09:16.318Z,31.47
2018-11-20T22:12:16.393Z,32.20
2018-11-20T22:15:19.403Z,32.43
2018-11-20T22:18:19.481Z,30.23
2018-11-20T22:21:21.943Z,30.13
2018-11-20T22:24:21.441Z,32.93
2018-11-20T22:27:24.206Z,34.10
2018-11-20T22:30:11.261Z,32.03
2018-11-20T22:33:11.059Z,32.67
2018-11-20T22:36:14.518Z,31.23
2018-11-20T22:39:03.801Z,29.73
2018-11-20T22:42:06.961Z,30.27
2018-11-20T22:45:06.485Z,31.17
2018-11-20T22:48:06.196Z,31.67
2018-11-20T22:51:06.251Z,26.47
2018-11-20T22:54:05.805Z,24.30
2018-11-20T22:57:12.038Z,25.17
2018-11-20T23:00:14.927Z,19.53
2018-11-20T23:03:04.426Z,25.83
2018-11-20T23:06:04.685Z,26.53
2018-11-20T23:08:45.643Z,29.43
2018-11-20T23:11:26.873Z,28.13
2018-11-20T23:14:07.899Z,31.73
2018-11-20T23:16:48.853Z,27.60
2018-11-20T23:19:30.033Z,32.67
2018-11-20T23:22:10.810Z,31.27
2018-11-20T23:24:51.144Z,31.03
2018-11-20T23:27:31.815Z,23.47
2018-11-20T23:30:13.866Z,31.93
2018-11-20T23:32:54.898Z,27.37
2018-11-20T23:35:36.019Z,28.43
2018-11-20T23:38:16.350Z,26.97
2018-11-20T23:40:57.042Z,29.20
2018-11-20T23:43:37.666Z,27.87
2018-11-20T23:46:18.030Z,30.20
2018-11-20T23:48:58.618Z,28.07
2018-11-20T23:51:39.180Z,30.50
2018-11-20T23:54:20.349Z,27.07
2018-11-20T23:57:00.771Z,20.47
2018-11-20T23:59:41.690Z,26.83
